Time;durP1;ratioP1;P1;durP2;ratioP2;P2;SDS_P1;SDS_P2;PMS_P1;PMS_P2;Temp;Humidity;BMP_temperature;BMP_pressure;BME280_temperature;BME280_humidity;BME280_pressure;Samples;Min_cycle;Max_cycle;Signal;HPM_P1;HPM_P2
2022/11/07 00:01:29;;;;;;;9.60;5.20;;;;;;;18.37;49.61;101153.86;105163;1290;69918;-89
2022/11/07 00:03:59;;;;;;;9.90;5.20;;;;;;;18.37;49.52;101156.66;104940;1276;70015;-89
2022/11/07 00:06:24;;;;;;;6.70;4.50;;;;;;;18.37;49.47;101159.38;105262;1286;69313;-89
2022/11/07 00:08:52;;;;;;;8.20;5.10;;;;;;;18.37;49.52;101162.28;105070;1295;70093;-89
2022/11/07 00:11:18;;;;;;;8.60;4.60;;;;;;;18.37;49.59;101161.86;105018;1285;74282;-89
2022/11/07 00:13:43;;;;;;;10.80;5.50;;;;;;;18.36;49.58;101161.65;105023;1281;70017;-89
2022/11/07 00:16:09;;;;;;;7.20;4.60;;;;;;;18.37;49.50;101163.30;105222;1280;70025;-89
2022/11/07 00:21:08;;;;;;;9.40;5.20;;;;;;;18.37;49.57;101161.30;105017;1282;69957;-89
2022/11/07 00:23:34;;;;;;;8.80;5.10;;;;;;;18.36;49.36;101162.77;104718;1294;74397;-89
2022/11/07 00:26:03;;;;;;;9.00;4.80;;;;;;;18.36;49.40;101162.52;104989;1287;67793;-89
2022/11/07 00:28:32;;;;;;;8.90;5.20;;;;;;;18.36;49.38;101161.65;104955;1281;72542;-89
2022/11/07 00:30:58;;;;;;;8.20;5.00;;;;;;;18.36;49.41;101166.08;104850;1293;69993;-90
2022/11/07 00:33:26;;;;;;;7.90;4.50;;;;;;;18.36;49.40;101164.45;104324;1295;69913;-90
2022/11/07 00:35:52;;;;;;;10.40;5.00;;;;;;;18.36;49.36;101160.63;104787;1295;70085;-90
2022/11/07 00:38:17;;;;;;;8.90;5.50;;;;;;;18.36;49.27;101163.27;104819;1293;69948;-90
2022/11/07 00:40:55;;;;;;;9.50;4.90;;;;;;;18.35;49.31;101160.04;104819;1291;70046;-90
2022/11/07 00:43:20;;;;;;;8.70;5.00;;;;;;;18.35;49.37;101160.66;104848;1288;69836;-89
2022/11/07 00:45:50;;;;;;;10.60;5.10;;;;;;;18.35;49.31;101163.25;104487;1291;70056;-89
2022/11/07 00:48:16;;;;;;;10.20;5.20;;;;;;;18.35;49.24;101161.97;104621;1294;75307;-90
2022/11/07 00:50:42;;;;;;;8.90;5.10;;;;;;;18.34;49.30;101156.41;104739;1293;70407;-89
2022/11/07 00:53:11;;;;;;;7.40;4.80;;;;;;;18.34;49.32;101160.38;104793;1292;68383;-89
2022/11/07 00:55:37;;;;;;;11.00;5.50;;;;;;;18.34;49.35;101159.20;104877;1287;69974;-89
2022/11/07 00:58:03;;;;;;;7.70;4.80;;;;;;;18.33;49.26;101158.27;104958;1292;70132;-90
2022/11/07 01:05:58;;;;;;;8.40;5.20;;;;;;;18.32;49.29;101156.31;104664;1288;73134;-89
2022/11/07 01:08:24;;;;;;;7.90;5.00;;;;;;;18.32;49.11;101153.60;104849;1295;69971;-90
2022/11/07 01:10:50;;;;;;;7.90;5.10;;;;;;;18.31;49.16;101155.79;104846;1292;68582;-90
2022/11/07 01:13:15;;;;;;;8.50;5.10;;;;;;;18.31;49.20;101154.11;104932;1287;69957;-91
2022/11/07 01:15:41;;;;;;;9.90;5.30;;;;;;;18.31;49.16;101156.91;104828;1291;70085;-89
2022/11/07 01:18:06;;;;;;;11.10;5.40;;;;;;;18.31;49.20;101152.67;104607;1288;69983;-90
2022/11/07 01:20:32;;;;;;;11.60;6.00;;;;;;;18.31;49.20;101150.04;104826;1294;70146;-90
2022/11/07 01:22:57;;;;;;;11.50;5.70;;;;;;;18.31;49.14;101151.80;105060;1281;70110;-90
2022/11/07 01:25:23;;;;;;;11.40;5.30;;;;;;;18.31;49.21;101147.41;105107;1293;69999;-90
2022/11/07 01:27:48;;;;;;;8.70;5.20;;;;;;;18.31;49.17;101151.25;105185;1287;70479;-88
2022/11/07 01:30:14;;;;;;;7.30;5.20;;;;;;;18.31;49.13;101151.09;104624;1293;70037;-91
2022/11/07 01:32:39;;;;;;;10.20;5.50;;;;;;;18.31;49.19;101150.69;105027;1288;70084;-91
2022/11/07 01:35:05;;;;;;;8.70;5.20;;;;;;;18.31;49.11;101153.95;105071;1293;69972;-90
2022/11/07 01:37:30;;;;;;;8.40;5.40;;;;;;;18.31;49.18;101149.47;105077;1291;70056;-90
2022/11/07 01:39:56;;;;;;;12.60;5.30;;;;;;;18.31;49.09;101155.88;105099;1288;70021;-90
2022/11/07 01:44:58;;;;;;;9.20;5.20;;;;;;;18.31;49.05;101153.48;105049;1284;82953;-90
2022/11/07 01:47:27;;;;;;;10.90;5.40;;;;;;;18.31;49.06;101155.17;105155;1290;72493;-90
2022/11/07 01:49:53;;;;;;;11.40;5.80;;;;;;;18.30;48.99;101152.88;105187;1291;68290;-90
2022/11/07 01:52:24;;;;;;;12.20;5.30;;;;;;;18.30;49.00;101150.72;105098;1294;70027;-90
2022/11/07 01:55:01;;;;;;;10.60;5.50;;;;;;;18.31;49.02;101151.73;105279;1285;74472;-89
2022/11/07 01:57:34;;;;;;;10.80;5.60;;;;;;;18.30;48.99;101148.23;104877;1274;82813;31
2022/11/07 02:00:00;;;;;;;10.10;5.20;;;;;;;18.30;48.94;101154.09;105113;1293;73316;-90
2022/11/07 02:02:26;;;;;;;12.10;6.20;;;;;;;18.31;49.07;101161.27;104822;1288;70008;-90
2022/11/07 02:04:53;;;;;;;9.20;6.00;;;;;;;18.30;48.86;101152.09;104992;1290;69508;-91
2022/11/07 02:07:20;;;;;;;9.20;5.30;;;;;;;18.30;48.91;101155.61;105116;1294;67283;-91
2022/11/07 02:09:46;;;;;;;10.10;5.50;;;;;;;18.30;48.89;101153.37;104958;1288;82911;-90
2022/11/07 02:14:42;;;;;;;13.60;6.30;;;;;;;18.31;48.94;101160.21;104827;1285;70035;-90
2022/11/07 02:17:11;;;;;;;11.90;6.00;;;;;;;18.30;48.91;101152.90;104835;1292;70036;-90
2022/11/07 02:19:43;;;;;;;11.00;5.70;;;;;;;18.30;48.82;101150.67;104903;1288;74161;-90
2022/11/07 02:22:25;;;;;;;11.80;5.80;;;;;;;18.30;48.85;101149.64;104969;1293;82959;-90
2022/11/07 02:24:52;;;;;;;8.60;5.60;;;;;;;18.29;48.82;101151.73;105001;1292;72288;-90
2022/11/07 02:27:26;;;;;;;9.40;5.50;;;;;;;18.29;48.84;101147.65;104760;1292;69894;31
2022/11/07 02:30:04;;;;;;;12.70;5.70;;;;;;;18.29;48.79;101151.98;104715;1288;69994;-90
2022/11/07 02:32:31;;;;;;;11.50;5.80;;;;;;;18.29;48.73;101155.29;104978;1277;73215;-90
2022/11/07 02:35:00;;;;;;;10.40;5.90;;;;;;;18.29;48.73;101153.29;105000;1281;69966;-90
2022/11/07 02:37:35;;;;;;;11.10;5.80;;;;;;;18.28;48.72;101153.23;104951;1288;72217;-90
2022/11/07 02:40:03;;;;;;;9.90;5.90;;;;;;;18.28;48.74;101151.95;104950;1288;69923;-91
2022/11/07 02:42:42;;;;;;;10.20;5.80;;;;;;;18.29;48.76;101151.30;104937;1293;69913;-90
2022/11/07 02:47:46;;;;;;;8.30;5.50;;;;;;;18.28;48.69;101145.95;104894;1288;82936;-90
2022/11/07 02:50:13;;;;;;;9.90;5.90;;;;;;;18.28;48.64;101143.23;105166;1293;70034;-90
2022/11/07 02:52:39;;;;;;;9.00;6.10;;;;;;;18.27;48.75;101143.69;104982;1290;69937;-90
2022/11/07 02:55:05;;;;;;;10.10;6.10;;;;;;;18.28;48.64;101146.36;104796;1294;70038;-90
2022/11/07 02:57:30;;;;;;;10.00;6.30;;;;;;;18.29;48.64;101151.61;104636;1290;70096;-89
2022/11/07 02:59:56;;;;;;;11.00;6.50;;;;;;;18.28;48.64;101151.55;104550;1287;70472;-89
2022/11/07 03:02:22;;;;;;;11.80;6.10;;;;;;;18.28;48.68;101157.10;104831;1293;70122;-89
2022/11/07 03:04:48;;;;;;;10.30;6.60;;;;;;;18.28;48.61;101163.88;105012;1290;70048;-90
2022/11/07 03:07:14;;;;;;;9.30;6.40;;;;;;;18.28;48.61;101169.17;104963;1285;70490;-89
2022/11/07 03:09:44;;;;;;;10.60;6.60;;;;;;;18.28;48.50;101168.15;105131;1292;69880;-89
2022/11/07 03:12:13;;;;;;;10.30;6.40;;;;;;;18.28;48.60;101172.14;105037;1284;72249;31
2022/11/07 03:14:39;;;;;;;12.20;6.80;;;;;;;18.28;48.55;101165.35;104922;1294;69797;-90
2022/11/07 03:17:04;;;;;;;10.90;6.40;;;;;;;18.28;48.55;101163.83;105146;1274;69951;-90
2022/11/07 03:19:30;;;;;;;11.10;6.20;;;;;;;18.28;48.54;101162.95;104754;1289;69939;-89
2022/11/07 03:21:55;;;;;;;13.60;6.20;;;;;;;18.27;48.50;101161.25;104953;1294;68644;-89
2022/11/07 03:24:21;;;;;;;11.10;6.70;;;;;;;18.27;48.53;101164.58;105057;1288;70003;-89
2022/11/07 03:26:46;;;;;;;8.10;5.80;;;;;;;18.27;48.51;101165.38;104630;1288;69975;-89
2022/11/07 03:29:11;;;;;;;10.30;6.70;;;;;;;18.28;48.48;101164.23;104634;1290;70029;-90
2022/11/07 03:31:37;;;;;;;9.50;6.30;;;;;;;18.28;48.41;101162.08;104715;1290;69985;-89
2022/11/07 03:34:02;;;;;;;13.10;7.50;;;;;;;18.27;48.53;101165.08;104675;1290;70069;-89
2022/11/07 03:36:28;;;;;;;11.80;6.60;;;;;;;18.27;48.51;101162.27;104982;1289;70789;-89
2022/11/07 03:41:34;;;;;;;9.00;6.40;;;;;;;18.27;48.35;101161.24;104656;1294;83644;-89
2022/11/07 03:43:59;;;;;;;8.70;6.00;;;;;;;18.26;48.40;101160.93;104866;1288;70124;-89
2022/11/07 03:46:24;;;;;;;12.00;6.70;;;;;;;18.26;48.44;101160.47;104730;1296;68629;-89
2022/11/07 03:48:50;;;;;;;9.80;6.50;;;;;;;18.26;48.42;101160.41;104962;1291;83381;-89
2022/11/07 03:51:15;;;;;;;11.90;6.60;;;;;;;18.26;48.38;101160.47;104702;1291;70055;-89
2022/11/07 03:53:41;;;;;;;10.20;5.80;;;;;;;18.26;48.33;101162.65;106237;1293;70008;-90
2022/11/07 03:56:07;;;;;;;7.50;6.00;;;;;;;18.26;48.42;101162.30;104772;1296;70118;-90
2022/11/07 03:58:33;;;;;;;9.30;6.30;;;;;;;18.28;48.40;101159.84;104789;1291;70014;-89
2022/11/07 04:00:58;;;;;;;9.70;5.70;;;;;;;18.29;48.41;101159.21;105073;1280;70027;-88
2022/11/07 04:03:24;;;;;;;7.50;5.30;;;;;;;18.30;48.48;101156.67;104980;1282;70059;-90
2022/11/07 04:08:27;;;;;;;9.70;5.90;;;;;;;18.33;48.55;101154.19;104795;1287;69932;-89
2022/11/07 04:10:52;;;;;;;10.50;6.50;;;;;;;18.34;48.47;101153.84;105108;1292;70063;-89
2022/11/07 04:18:51;;;;;;;13.50;7.40;;;;;;;18.30;48.44;101155.64;105144;1294;69867;-90
2022/11/07 04:21:18;;;;;;;11.70;6.90;;;;;;;18.28;48.44;101153.79;105049;1282;69962;-90
2022/11/07 04:29:24;;;;;;;14.30;7.30;;;;;;;18.26;48.51;101155.62;104508;1283;71953;-89
2022/11/07 04:31:49;;;;;;;12.20;6.50;;;;;;;18.25;48.39;101154.27;105026;1288;70022;-90
2022/11/07 04:34:15;;;;;;;16.40;7.30;;;;;;;18.25;48.38;101152.85;104874;1293;70101;-89
2022/11/07 04:36:40;;;;;;;20.60;9.10;;;;;;;18.25;48.31;101154.48;105019;1292;69886;-91
2022/11/07 04:39:10;;;;;;;15.20;8.50;;;;;;;18.22;48.22;101148.88;105230;1284;70018;-89
2022/11/07 04:41:35;;;;;;;15.20;9.60;;;;;;;18.23;48.14;101154.23;104838;1289;70024;-90
2022/11/07 04:44:01;;;;;;;17.30;10.10;;;;;;;18.22;48.18;101152.98;105041;1290;69978;-90
2022/11/07 04:46:27;;;;;;;20.40;9.20;;;;;;;18.21;48.14;101153.92;105040;1289;70646;-90
2022/11/07 04:48:52;;;;;;;16.60;10.90;;;;;;;18.17;48.05;101153.69;105213;1287;68460;-90
2022/11/07 04:51:23;;;;;;;21.90;12.50;;;;;;;18.15;47.99;101154.73;105051;1287;70037;-90
2022/11/07 04:54:10;;;;;;;18.90;11.70;;;;;;;18.15;47.97;101160.17;104875;1287;69922;31
2022/11/07 04:59:07;;;;;;;21.90;12.30;;;;;;;18.14;47.98;101155.36;105055;1287;83031;-90
2022/11/07 05:01:33;;;;;;;16.60;11.00;;;;;;;18.12;47.97;101156.59;105099;1291;70081;-90
2022/11/07 05:03:58;;;;;;;17.80;10.00;;;;;;;18.13;47.90;101157.67;105293;1282;68280;-90
2022/11/07 05:06:24;;;;;;;13.80;9.30;;;;;;;18.12;47.76;101159.70;105551;1281;69948;-91
2022/11/07 05:08:54;;;;;;;15.10;8.40;;;;;;;18.12;47.82;101162.34;105497;1285;70401;31
2022/11/07 05:11:19;;;;;;;16.90;9.10;;;;;;;18.11;47.82;101166.30;104993;1291;72606;-91
2022/11/07 05:13:49;;;;;;;16.20;8.30;;;;;;;18.11;47.76;101171.27;105186;1287;68412;-91
2022/11/07 05:16:18;;;;;;;15.70;8.70;;;;;;;18.11;47.89;101170.31;105207;1290;69969;-90
2022/11/07 05:18:44;;;;;;;18.10;8.60;;;;;;;18.11;47.78;101176.33;104993;1281;74264;-90
2022/11/07 05:21:12;;;;;;;16.50;9.60;;;;;;;18.10;47.70;101179.16;105311;1294;69934;-90
2022/11/07 05:23:45;;;;;;;21.50;9.60;;;;;;;18.09;47.72;101179.59;105291;1293;72681;31
2022/11/07 05:26:10;;;;;;;20.30;9.20;;;;;;;18.08;47.66;101181.75;104883;1296;69915;-91
2022/11/07 05:28:36;;;;;;;11.50;8.40;;;;;;;18.08;47.77;101181.48;105283;1290;70000;-90
2022/11/07 05:31:03;;;;;;;11.90;7.20;;;;;;;18.08;47.75;101181.25;105472;1290;68127;-92
2022/11/07 05:55:05;;;;;;;16.20;9.10;;;;;;;18.24;48.21;101207.98;106759;1280;67649;-91
2022/11/07 06:00:43;;;;;;;13.30;8.10;;;;;;;18.26;48.22;101210.69;106331;1285;73495;-91
2022/11/07 06:03:21;;;;;;;11.90;8.00;;;;;;;18.27;48.30;101215.91;106091;1282;83018;-91
2022/11/07 06:05:56;;;;;;;15.30;8.30;;;;;;;18.27;48.22;101220.30;106037;1290;72515;-90
2022/11/07 09:41:29;;;;;;;12.80;8.20;;;;;;;19.18;46.05;101307.17;106150;1285;69782;-90
2022/11/07 10:13:35;;;;;;;11.10;7.10;;;;;;;19.65;45.03;101276.66;106758;1284;67557;-93
